^^
Station Historical Data
 
Daily Summary for May 24, 2018 Units:  English    Metric   Both
« Previous Day
Next Day »
Daily Weekly Monthly Yearly Custom
  Current: High: Low: Average:
Temperature: 78.6 °F TemperatureF °F 71.1 °F 80 °F
Dew Point: 72.7 °F DewpointF °F 69.7 °F 73.2 °F
Humidity: 82% Humidity% 62% 80%
Wind Speed: 0.0mph WindSpeedMPHmph 0.0mph 1.3mph
Wind Gust: 0.0mph WindSpeedGustMPHmph - -
WindCalm - - SSE
Pressure: 30.07 in PressureIn in 30.02 in -
Precipitation: 0.03 in      
Historical Graphs
 
 
Tabular Data for May 24, 2018
Time Temperature Dew Point Pressure Wind Wind Speed Wind Gust Humidity Rainfall Rate (Hourly) Conditions
TemperatureF °F DewpointF °F PressureIn in Calm     Humidity% HourlyPrecipIn in Conditions
00:00 76.6 °F 73.2 °F 30.09 in Calm     89% 0.00 in CLR
00:05 76.5 °F 73.0 °F 30.08 in Calm     89% 0.00 in RA
00:10 76.5 °F 73.0 °F 30.08 in Calm     89% 0.00 in
00:15 76.3 °F 72.8 °F 30.08 in Calm     89% 0.00 in
00:20 76.3 °F 73.1 °F 30.08 in Calm     90% 0.00 in CLR
00:25 76.2 °F 73.1 °F 30.08 in Calm     90% 0.00 in
00:30 76.1 °F 73.0 °F 30.08 in Calm     90% 0.00 in
00:35 75.9 °F 72.8 °F 30.08 in Calm     90% 0.00 in
00:40 75.9 °F 72.8 °F 30.08 in Calm     90% 0.00 in CLR
00:45 75.8 °F 72.7 °F 30.08 in Calm     90% 0.00 in
00:50 75.9 °F 73.1 °F 30.08 in Calm     91% 0.00 in
00:55 75.9 °F 72.8 °F 30.08 in Calm     90% 0.00 in
01:00 75.9 °F 72.8 °F 30.08 in Calm     90% 0.00 in CLR
01:05 75.7 °F 72.9 °F 30.07 in Calm     91% 0.00 in CLR
01:10 75.9 °F 73.1 °F 30.07 in Calm     91% 0.00 in CLR
01:15 75.7 °F 72.9 °F 30.07 in Calm     91% 0.00 in CLR
01:20 75.9 °F 73.1 °F 30.07 in Calm     91% 0.00 in CLR
01:25 75.9 °F 73.1 °F 30.07 in Calm     91% 0.00 in
01:30 75.9 °F 73.1 °F 30.07 in Calm     91% 0.00 in CLR
01:34 75.7 °F 72.9 °F 30.06 in Calm     91% 0.00 in CLR
01:39 75.7 °F 72.9 °F 30.06 in Calm     91% 0.00 in CLR
01:44 75.7 °F 72.9 °F 30.06 in Calm     91% 0.00 in CLR
01:49 75.7 °F 72.9 °F 30.06 in Calm     91% 0.00 in CLR
01:54 75.9 °F 73.4 °F 30.06 in Calm     92% 0.00 in CLR
01:59 75.9 °F 73.4 °F 30.06 in Calm     92% 0.00 in CLR
02:04 75.9 °F 73.4 °F 30.06 in Calm     92% 0.00 in CLR
02:09 75.9 °F 73.4 °F 30.06 in Calm     92% 0.00 in CLR
02:14 75.7 °F 73.2 °F 30.06 in Calm     92% 0.00 in CLR
02:19 75.7 °F 73.2 °F 30.06 in Calm     92% 0.00 in CLR
02:24 75.7 °F 73.2 °F 30.06 in Calm     92% 0.00 in CLR
02:29 75.7 °F 73.2 °F 30.06 in Calm     92% 0.00 in CLR
02:34 75.7 °F 73.2 °F 30.06 in Calm     92% 0.00 in CLR
02:39 75.6 °F 73.1 °F 30.06 in Calm     92% 0.00 in CLR
02:44 75.4 °F 72.9 °F 30.06 in Calm     92% 0.00 in CLR
02:49 75.0 °F 72.5 °F 30.06 in Calm     92% 0.00 in CLR
02:54 75.0 °F 72.5 °F 30.06 in Calm     92% 0.00 in CLR
02:59 75.0 °F 72.5 °F 30.06 in Calm     92% 0.00 in CLR
03:04 74.3 °F 71.8 °F 30.06 in Calm     92% 0.00 in CLR
03:09 74.1 °F 72.0 °F 30.06 in Calm     93% 0.00 in CLR
03:14 73.9 °F 71.8 °F 30.06 in Calm     93% 0.00 in CLR
03:19 73.9 °F 71.8 °F 30.06 in Calm     93% 0.00 in CLR
03:24 73.9 °F 72.1 °F 30.06 in Calm     94% 0.00 in CLR
03:29 73.8 °F 71.9 °F 30.06 in Calm     94% 0.00 in CLR
03:34 73.6 °F 71.7 °F 30.06 in Calm     94% 0.00 in CLR
03:39 73.4 °F 71.6 °F 30.06 in Calm     94% 0.00 in CLR
03:44 73.2 °F 71.4 °F 30.06 in Calm     94% 0.00 in CLR
03:49 73.2 °F 71.4 °F 30.06 in Calm     94% 0.00 in CLR
03:54 72.9 °F 71.0 °F 30.06 in Calm     94% 0.00 in CLR
03:59 72.5 °F 70.7 °F 30.06 in Calm     94% 0.00 in CLR
04:04 72.5 °F 71.0 °F 30.07 in Calm     95% 0.00 in CLR
04:09 72.3 °F 70.5 °F 30.07 in Calm     94% 0.00 in CLR
04:14 72.1 °F 70.6 °F 30.07 in Calm     95% 0.01 in RA
04:19 72.1 °F 70.6 °F 30.07 in Calm     95% 0.01 in RA
04:24 72.0 °F 70.4 °F 30.07 in Calm     95% 0.01 in
04:29 72.0 °F 70.4 °F 30.07 in Calm     95% 0.01 in
04:34 72.0 °F 70.4 °F 30.07 in Calm     95% 0.01 in
04:39 71.8 °F 70.3 °F 30.07 in Calm     95% 0.01 in
04:44 71.8 °F 70.3 °F 30.07 in Calm     95% 0.01 in
04:49 71.6 °F 70.1 °F 30.07 in Calm     95% 0.01 in
04:54 71.6 °F 70.1 °F 30.07 in Calm     95% 0.01 in
04:59 71.4 °F 69.9 °F 30.07 in Calm     95% 0.01 in
05:04 71.4 °F 69.9 °F 30.07 in Calm     95% 0.01 in
05:09 71.2 °F 69.7 °F 30.08 in Calm     95% 0.01 in
05:14 71.2 °F 70.0 °F 30.08 in Calm     96% 0.00 in CLR
05:19 71.4 °F 70.2 °F 30.08 in Calm     96% 0.00 in CLR
05:24 71.2 °F 70.0 °F 30.08 in Calm     96% 0.00 in CLR
05:29 71.2 °F 70.0 °F 30.08 in Calm     96% 0.00 in CLR
05:34 71.2 °F 70.0 °F 30.08 in Calm     96% 0.00 in CLR
05:39 71.2 °F 70.0 °F 30.08 in Calm     96% 0.00 in CLR
05:44 71.2 °F 70.0 °F 30.08 in Calm     96% 0.00 in CLR
05:49 71.1 °F 69.9 °F 30.09 in Calm     96% 0.00 in CLR
05:54 71.1 °F 69.9 °F 30.09 in Calm     96% 0.00 in CLR
05:59 71.2 °F 70.0 °F 30.09 in Calm     96% 0.00 in CLR
06:04 71.4 °F 70.2 °F 30.09 in Calm     96% 0.00 in CLR
06:08 71.4 °F 70.2 °F 30.09 in Calm     96% 0.00 in CLR
06:13 71.4 °F 70.2 °F 30.09 in Calm     96% 0.00 in CLR
06:18 71.2 °F 70.0 °F 30.10 in Calm     96% 0.00 in CLR
06:23 71.2 °F 70.0 °F 30.10 in Calm     96% 0.00 in CLR
06:28 71.8 °F 70.9 °F 30.10 in Calm     97% 0.00 in CLR
06:33 72.0 °F 71.1 °F 30.10 in Calm     97% 0.00 in CLR
06:38 72.1 °F 71.2 °F 30.10 in Calm     97% 0.00 in CLR
06:43 72.3 °F 71.4 °F 30.11 in Calm     97% 0.00 in CLR
06:48 72.5 °F 71.6 °F 30.11 in Calm     97% 0.00 in CLR
06:54 72.9 °F 72.0 °F 30.11 in Calm     97% 0.00 in CLR
06:58 73.2 °F 72.3 °F 30.11 in ESE 1.2 mph   97% 0.00 in CLR
07:03 73.8 °F 72.9 °F 30.11 in Calm     97% 0.00 in CLR
07:08 74.1 °F 73.2 °F 30.11 in Calm     97% 0.00 in CLR
07:13 74.7 °F 73.8 °F 30.11 in Calm     97% 0.00 in CLR
07:19 74.8 °F 73.9 °F 30.11 in ENE 3.5 mph   97% 0.00 in CLR
07:24 74.8 °F 73.9 °F 30.11 in ENE 3.5 mph   97% 0.00 in CLR
07:29 76.3 °F 75.1 °F 30.11 in East 2.0 mph 2.0 mph 96% 0.00 in
07:34 76.6 °F 75.1 °F 30.11 in ESE 1.0 mph 2.0 mph 95% 0.00 in
07:39 77.2 °F 75.3 °F 30.11 in East 1.2 mph 1.2 mph 94% 0.00 in CLR
07:44 77.6 °F 75.5 °F 30.11 in ESE 1.0 mph   93% 0.00 in
07:49 78.4 °F 75.5 °F 30.11 in Calm   2.0 mph 91% 0.00 in
07:54 79.0 °F 75.8 °F 30.11 in Calm     90% 0.00 in
07:59 79.9 °F 75.7 °F 30.11 in Calm     87% 0.00 in CLR
08:04 80.2 °F 75.7 °F 30.11 in South 2.3 mph   86% 0.00 in CLR
08:09 80.4 °F 75.5 °F 30.11 in SSE 3.5 mph 3.5 mph 85% 0.00 in CLR
08:14 80.8 °F 75.8 °F 30.11 in SE 2.0 mph 3.0 mph 85% 0.00 in
08:19 80.8 °F 75.5 °F 30.12 in East 3.5 mph 3.5 mph 84% 0.00 in CLR
08:24 81.3 °F 75.7 °F 30.11 in ESE 1.0 mph 2.0 mph 83% 0.00 in CLR
08:29 81.9 °F 76.3 °F 30.11 in ESE 1.0 mph   83% 0.00 in CLR
08:34 82.4 °F 76.0 °F 30.11 in SSE 3.5 mph 3.5 mph 81% 0.00 in CLR
08:39 82.8 °F 76.7 °F 30.12 in SSE 3.5 mph 3.5 mph 82% 0.00 in CLR
08:44 82.9 °F 75.7 °F 30.11 in SE 2.0 mph 3.0 mph 79% 0.00 in CLR
08:49 83.3 °F 76.1 °F 30.12 in SSE 2.9 mph 2.9 mph 79% 0.00 in CLR
08:54 83.1 °F 75.9 °F 30.11 in SE 3.0 mph   79% 0.00 in CLR
08:59 83.3 °F 76.5 °F 30.11 in SE 2.0 mph 3.0 mph 80% 0.00 in CLR
09:04 83.3 °F 76.5 °F 30.11 in SE 3.5 mph 3.5 mph 80% 0.00 in CLR
09:09 82.9 °F 75.0 °F 30.12 in SE 4.6 mph 4.6 mph 77% 0.00 in CLR
09:14 83.5 °F 75.9 °F 30.11 in SE 2.0 mph 2.0 mph 78% 0.00 in CLR
09:19 83.4 °F 75.0 °F 30.11 in SE 2.0 mph 4.0 mph 76% 0.00 in CLR
09:24 82.9 °F 75.0 °F 30.11 in ESE 3.5 mph 3.5 mph 77% 0.00 in CLR
09:29 83.3 °F 75.3 °F 30.11 in SSE 3.5 mph 3.5 mph 77% 0.00 in CLR
09:34 83.7 °F 75.7 °F 30.11 in SE 2.0 mph 2.0 mph 77% 0.00 in CLR
09:39 84.2 °F 75.4 °F 30.11 in SSE 4.6 mph 4.6 mph 75% 0.01 in RA
09:44 84.7 °F 75.9 °F 30.11 in SE 3.5 mph 3.5 mph 75% 0.01 in RA
09:49 84.7 °F 75.9 °F 30.11 in SE 1.0 mph 3.0 mph 75% 0.00 in
09:54 84.7 °F 75.5 °F 30.11 in Calm   0.9 mph 74% 0.01 in
09:59 85.3 °F 75.6 °F 30.11 in SSE 2.3 mph 2.3 mph 73% 0.01 in
10:04 85.5 °F 75.4 °F 30.11 in Calm   0.9 mph 72% 0.01 in
10:09 85.6 °F 75.6 °F 30.11 in SSE 3.5 mph 3.5 mph 72% 0.01 in
10:14 85.8 °F 75.3 °F 30.11 in South 1.0 mph 1.0 mph 71% 0.00 in
10:19 85.8 °F 75.7 °F 30.11 in SSE 2.0 mph 2.0 mph 72% 0.01 in
10:24 85.8 °F 75.3 °F 30.11 in South 1.0 mph 2.0 mph 71% 0.00 in
10:29 85.8 °F 75.3 °F 30.11 in South 1.0 mph 2.0 mph 71% 0.00 in
10:34 85.6 °F 75.6 °F 30.12 in SE 4.0 mph 4.0 mph 72% 0.01 in
10:39 85.6 °F 75.2 °F 30.12 in South 1.0 mph 1.0 mph 71% 0.00 in CLR
10:44 85.6 °F 75.2 °F 30.12 in South 1.0 mph 2.0 mph 71% 0.00 in CLR
10:49 85.6 °F 76.0 °F 30.12 in SSE 2.9 mph 2.9 mph 73% 0.00 in CLR
10:54 85.8 °F 76.2 °F 30.12 in SSE 4.0 mph 4.0 mph 73% 0.00 in CLR
10:59 85.8 °F 75.3 °F 30.12 in SSE 1.2 mph 1.2 mph 71% 0.00 in CLR
11:04 85.8 °F 75.3 °F 30.12 in SSE 1.2 mph 1.2 mph 71% 0.00 in CLR
11:09 85.8 °F 75.3 °F 30.11 in SE 1.2 mph 2.0 mph 71% 0.00 in CLR
11:14 85.7 °F 74.8 °F 30.11 in SSE 2.0 mph 2.0 mph 70% 0.00 in CLR
11:19 85.6 °F 75.6 °F 30.11 in SSE 1.0 mph 2.0 mph 72% 0.00 in CLR
11:24 85.6 °F 75.2 °F 30.11 in SSE 1.0 mph 1.0 mph 71% 0.00 in CLR
11:29 85.3 °F 75.2 °F 30.11 in SE 2.3 mph 2.3 mph 72% 0.00 in CLR
11:34 85.6 °F 75.2 °F 30.11 in SSE 3.5 mph 3.5 mph 71% 0.00 in CLR
11:39 85.7 °F 74.8 °F 30.11 in SSE 1.0 mph   70% 0.00 in CLR
11:44 86.2 °F 75.2 °F 30.11 in SW 3.5 mph 3.5 mph 70% 0.00 in CLR
11:48 86.5 °F 75.6 °F 30.11 in SE 4.0 mph 4.0 mph 70% 0.00 in CLR
11:54 86.4 °F 75.0 °F 30.11 in SSE 2.3 mph 2.3 mph 69% 0.00 in CLR
11:59 86.2 °F 75.7 °F 30.11 in South 2.0 mph 2.0 mph 71% 0.00 in CLR
12:04 86.4 °F 75.8 °F 30.11 in South 3.5 mph 3.5 mph 71% 0.00 in CLR
12:09 86.0 °F 75.1 °F 30.11 in South 1.2 mph 1.2 mph 70% 0.00 in CLR
12:14 86.4 °F 75.4 °F 30.11 in SSW 2.3 mph 2.3 mph 70% 0.00 in CLR
12:19 86.4 °F 75.4 °F 30.11 in SSW 2.3 mph 2.3 mph 70% 0.00 in CLR
12:24 86.2 °F 75.2 °F 30.10 in SSE 2.3 mph 2.3 mph 70% 0.00 in CLR
12:29 86.2 °F 73.9 °F 30.10 in SSE 2.3 mph 2.3 mph 67% 0.00 in CLR
12:34 86.4 °F 75.0 °F 30.10 in SSE 0.9 mph 0.9 mph 69% 0.00 in CLR
12:39 86.5 °F 74.7 °F 30.10 in SSE 2.3 mph 2.3 mph 68% 0.00 in CLR
12:44 86.5 °F 74.3 °F 30.10 in South 1.2 mph 1.2 mph 67% 0.00 in CLR
12:49 86.5 °F 73.8 °F 30.09 in SSE 4.6 mph 4.6 mph 66% 0.00 in CLR
12:54 86.5 °F 73.8 °F 30.09 in SSE 3.5 mph 3.5 mph 66% 0.00 in CLR
12:59 86.9 °F 73.7 °F 30.09 in SE 6.9 mph 6.9 mph 65% 0.00 in CLR
13:04 87.3 °F 74.1 °F 30.09 in SW 2.3 mph 2.3 mph 65% 0.00 in CLR
13:09 87.1 °F 73.4 °F 30.09 in Calm   0.9 mph 64% 0.00 in CLR
13:14 87.3 °F 73.6 °F 30.09 in SSE 1.2 mph 1.2 mph 64% 0.00 in CLR
13:19 87.4 °F 72.8 °F 30.09 in South 0.9 mph 0.9 mph 62% 0.00 in CLR
13:24 87.3 °F 74.1 °F 30.08 in Calm   0.9 mph 65% 0.00 in CLR
13:29 87.3 °F 74.1 °F 30.08 in Calm   0.9 mph 65% 0.00 in CLR
13:34 87.1 °F 73.4 °F 30.08 in SSE 6.9 mph 6.9 mph 64% 0.00 in CLR
13:39 86.5 °F 73.4 °F 30.08 in SE 6.0 mph 6.0 mph 65% 0.00 in CLR
13:44 86.7 °F 74.0 °F 30.08 in SE 2.3 mph 2.3 mph 66% 0.00 in CLR
13:49 86.7 °F 74.4 °F 30.07 in South 2.0 mph 2.0 mph 67% 0.00 in CLR
13:54 87.4 °F 74.2 °F 30.07 in SE 3.5 mph 3.5 mph 65% 0.00 in CLR
13:59 87.3 °F 73.6 °F 30.06 in SSE 3.5 mph 3.5 mph 64% 0.00 in CLR
14:04 86.9 °F 73.3 °F 30.06 in SSE 1.2 mph 2.0 mph 64% 0.00 in CLR
14:09 86.7 °F 74.0 °F 30.06 in SSE 2.3 mph 2.3 mph 66% 0.00 in CLR
14:14 86.5 °F 73.4 °F 30.06 in South 3.5 mph 3.5 mph 65% 0.00 in CLR
14:19 86.7 °F 74.0 °F 30.06 in South 3.5 mph 3.5 mph 66% 0.00 in CLR
14:24 87.1 °F 73.9 °F 30.06 in South 2.3 mph 2.3 mph 65% 0.00 in CLR
14:29 86.7 °F 73.5 °F 30.06 in SSW 2.3 mph 2.3 mph 65% 0.00 in CLR
14:34 87.4 °F 73.3 °F 30.06 in Calm   0.9 mph 63% 0.00 in CLR
14:39 87.6 °F 73.9 °F 30.06 in Calm   0.9 mph 64% 0.01 in RA
14:44 87.1 °F 73.4 °F 30.06 in WSW 2.3 mph 2.3 mph 64% 0.01 in RA
14:49 87.8 °F 74.1 °F 30.05 in SSW 2.3 mph 2.3 mph 64% 0.01 in
14:54 87.8 °F 74.6 °F 30.05 in SSE 1.2 mph 2.0 mph 65% 0.01 in
14:59 87.3 °F 74.1 °F 30.05 in SE 1.2 mph 2.0 mph 65% 0.01 in
15:04 87.1 °F 75.2 °F 30.05 in South 3.5 mph 3.5 mph 68% 0.01 in
15:09 86.7 °F 74.9 °F 30.05 in SSE 4.6 mph 4.6 mph 68% 0.01 in
15:14 86.5 °F 74.7 °F 30.05 in SSE 3.5 mph 3.5 mph 68% 0.01 in
15:19 86.4 °F 73.7 °F 30.05 in SE 1.2 mph 2.0 mph 66% 0.01 in
15:24 86.4 °F 75.0 °F 30.04 in SSE 2.3 mph 2.3 mph 69% 0.01 in
15:29 86.4 °F 74.5 °F 30.04 in Calm     68% 0.01 in
15:34 86.4 °F 74.5 °F 30.04 in Calm   0.9 mph 68% 0.01 in
15:39 86.4 °F 74.5 °F 30.04 in South 2.3 mph 2.3 mph 68% 0.00 in CLR
15:44 86.4 °F 75.4 °F 30.04 in South 1.2 mph 1.2 mph 70% 0.00 in CLR
15:49 86.4 °F 75.4 °F 30.04 in SSE 1.2 mph 1.2 mph 70% 0.00 in CLR
15:54 86.4 °F 75.4 °F 30.04 in SSE 1.2 mph 1.2 mph 70% 0.00 in CLR
15:59 85.8 °F 74.9 °F 30.03 in SE 4.0 mph 4.0 mph 70% 0.00 in CLR
16:00 85.8 °F 74.9 °F 30.03 in South 3.5 mph 3.5 mph 70% 0.00 in CLR
16:05 85.8 °F 74.9 °F 30.03 in Calm   0.9 mph 70% 0.00 in CLR
16:10 85.8 °F 74.9 °F 30.03 in South 2.3 mph 2.3 mph 70% 0.00 in CLR
16:15 86.0 °F 75.1 °F 30.03 in SSE 1.2 mph 1.2 mph 70% 0.00 in CLR
16:20 85.8 °F 74.9 °F 30.03 in South 2.9 mph 2.9 mph 70% 0.00 in CLR
16:25 85.6 °F 75.2 °F 30.03 in SSE 4.6 mph 4.6 mph 71% 0.00 in CLR
16:30 85.5 °F 75.0 °F 30.03 in South 1.2 mph 2.0 mph 71% 0.00 in CLR
16:35 85.1 °F 74.2 °F 30.03 in SSE 2.3 mph 2.3 mph 70% 0.00 in CLR
16:40 85.1 °F 74.6 °F 30.03 in SE 5.8 mph 5.8 mph 71% 0.00 in CLR
16:45 84.7 °F 74.7 °F 30.02 in SE 3.5 mph 3.5 mph 72% 0.00 in CLR
16:50 84.7 °F 74.7 °F 30.03 in SSW 2.3 mph 2.3 mph 72% 0.00 in CLR
16:55 84.7 °F 74.7 °F 30.03 in SSE 4.0 mph 4.0 mph 72% 0.00 in CLR
17:00 84.9 °F 74.9 °F 30.03 in SSE 2.3 mph 2.3 mph 72% 0.00 in CLR
17:05 84.9 °F 74.0 °F 30.03 in SW 1.2 mph 2.0 mph 70% 0.00 in CLR
17:10 84.9 °F 74.5 °F 30.03 in SE 2.3 mph 2.3 mph 71% 0.00 in CLR
17:15 84.7 °F 74.3 °F 30.03 in SSE 3.5 mph 3.5 mph 71% 0.00 in CLR
17:20 84.9 °F 74.9 °F 30.03 in SSE 4.6 mph 4.6 mph 72% 0.00 in CLR
17:25 84.7 °F 74.7 °F 30.03 in South 2.0 mph 2.0 mph 72% 0.00 in CLR
17:30 84.2 °F 74.2 °F 30.03 in SE 1.2 mph 1.2 mph 72% 0.00 in CLR
17:35 83.8 °F 74.3 °F 30.03 in SSE 2.9 mph 2.9 mph 73% 0.00 in CLR
17:40 83.8 °F 74.3 °F 30.03 in SW 2.9 mph 2.9 mph 73% 0.00 in CLR
17:45 83.5 °F 74.3 °F 30.03 in SSW 0.9 mph 2.0 mph 74% 0.00 in CLR
17:50 83.3 °F 74.1 °F 30.03 in Calm   0.9 mph 74% 0.00 in CLR
17:55 83.1 °F 74.0 °F 30.03 in SE 1.2 mph   74% 0.00 in CLR
18:00 83.1 °F 74.0 °F 30.03 in SE 1.2 mph   74% 0.00 in CLR
18:05 82.8 °F 74.0 °F 30.03 in South 2.9 mph 2.9 mph 75% 0.00 in CLR
18:10 82.4 °F 73.7 °F 30.03 in Calm   0.9 mph 75% 0.00 in CLR
18:15 82.2 °F 73.5 °F 30.03 in WSW 3.5 mph 3.5 mph 75% 0.00 in CLR
18:20 82.0 °F 73.7 °F 30.03 in SSE 2.3 mph 2.3 mph 76% 0.00 in CLR
18:25 81.9 °F 73.5 °F 30.03 in SSE 4.6 mph 4.6 mph 76% 0.00 in CLR
18:30 81.3 °F 73.0 °F 30.03 in SSE 1.2 mph 1.2 mph 76% 0.00 in CLR
18:35 81.1 °F 73.2 °F 30.04 in Calm   0.9 mph 77% 0.00 in CLR
18:40 81.0 °F 73.1 °F 30.04 in SE 1.2 mph   77% 0.00 in CLR
18:45 81.0 °F 73.1 °F 30.04 in Calm   0.9 mph 77% 0.00 in CLR
18:50 80.8 °F 73.3 °F 30.05 in WNW 1.2 mph 1.2 mph 78% 0.00 in CLR
18:55 80.4 °F 72.9 °F 30.05 in Calm   0.9 mph 78% 0.00 in CLR
19:00 80.2 °F 72.8 °F 30.05 in Calm     78% 0.00 in CLR
19:05 80.1 °F 72.6 °F 30.05 in South 1.2 mph   78% 0.00 in CLR
19:10 79.9 °F 72.8 °F 30.05 in Calm     79% 0.00 in CLR
19:15 79.5 °F 72.4 °F 30.04 in Calm     79% 0.00 in CLR
19:20 79.5 °F 72.8 °F 30.04 in South 1.2 mph   80% 0.00 in CLR
19:25 79.5 °F 72.8 °F 30.04 in South 1.2 mph   80% 0.00 in CLR
19:31 79.2 °F 72.8 °F 30.05 in SSW 0.9 mph   81% 0.00 in CLR
19:36 79.2 °F 72.8 °F 30.06 in Calm     81% 0.00 in CLR
19:41 79.2 °F 72.8 °F 30.06 in Calm     81% 0.00 in CLR
19:46 79.0 °F 72.6 °F 30.07 in Calm     81% 0.00 in CLR
19:51 78.8 °F 72.5 °F 30.07 in Calm     81% 0.00 in CLR
19:56 78.6 °F 72.3 °F 30.07 in Calm     81% 0.00 in CLR
20:01 78.6 °F 72.7 °F 30.07 in Calm     82% 0.00 in CLR
Panama City, Florida, USA
Compliments of Weather Underground - 3.75 mb